createdAt,value
2022-11-23T00:01:28.093Z,97.84
2022-11-23T00:03:58.174Z,97.74
2022-11-23T00:06:26.321Z,97.78
2022-11-23T00:08:54.190Z,97.63
2022-11-23T00:11:23.161Z,97.41
2022-11-23T00:13:51.542Z,97.75
2022-11-23T00:16:25.951Z,97.46
2022-11-23T00:18:58.657Z,97.53
2022-11-23T00:21:28.200Z,97.60
2022-11-23T00:23:55.409Z,97.39
2022-11-23T00:26:22.895Z,97.38
2022-11-23T00:28:49.860Z,97.47
2022-11-23T00:31:19.627Z,97.51
2022-11-23T00:33:55.134Z,97.20
2022-11-23T00:36:24.085Z,97.61
2022-11-23T00:38:54.204Z,97.71
2022-11-23T00:41:25.738Z,97.39
2022-11-23T00:43:53.262Z,97.40
2022-11-23T00:46:24.057Z,97.02
2022-11-23T00:48:53.659Z,97.42
2022-11-23T00:51:29.273Z,97.39
2022-11-23T00:53:56.942Z,97.60
2022-11-23T00:56:26.570Z,96.86
2022-11-23T00:58:55.724Z,97.29
2022-11-23T01:01:25.969Z,96.84
2022-11-23T01:03:56.156Z,96.92
2022-11-23T01:06:26.035Z,97.02
2022-11-23T01:08:56.588Z,96.94
2022-11-23T01:11:27.451Z,96.96
2022-11-23T01:13:54.753Z,97.15
2022-11-23T01:16:24.796Z,97.02
2022-11-23T01:18:56.941Z,96.98
2022-11-23T01:21:25.366Z,96.87
2022-11-23T01:23:53.040Z,97.07
2022-11-23T01:26:20.586Z,96.98
2022-11-23T01:28:48.202Z,96.92
2022-11-23T01:31:22.587Z,96.67
2022-11-23T01:33:58.440Z,97.00
2022-11-23T01:36:29.734Z,96.71
2022-11-23T01:38:59.456Z,96.75
2022-11-23T01:41:38.968Z,96.58
2022-11-23T01:44:30.284Z,96.63
2022-11-23T01:47:01.485Z,96.63
2022-11-23T01:49:36.118Z,96.98
2022-11-23T01:52:26.432Z,96.47
2022-11-23T01:54:59.225Z,96.86
2022-11-23T01:57:41.979Z,97.07
2022-11-23T02:00:09.866Z,96.60
2022-11-23T02:02:53.458Z,96.82
2022-11-23T02:05:25.830Z,97.08
2022-11-23T02:07:53.755Z,96.93
2022-11-23T02:10:22.845Z,97.04
2022-11-23T02:12:49.838Z,97.03
2022-11-23T02:15:16.932Z,97.09
2022-11-23T02:17:44.370Z,96.83
2022-11-23T02:20:17.560Z,96.72
2022-11-23T02:23:18.260Z,96.43
2022-11-23T02:25:45.169Z,96.48
2022-11-23T02:28:22.877Z,96.30
2022-11-23T02:30:53.174Z,96.46
2022-11-23T02:33:25.199Z,96.45
2022-11-23T02:35:57.130Z,96.31
2022-11-23T02:38:30.174Z,96.06
2022-11-23T02:40:57.924Z,95.86
2022-11-23T02:43:25.506Z,96.05
2022-11-23T02:45:59.566Z,95.72
2022-11-23T02:48:26.555Z,96.04
2022-11-23T02:50:53.778Z,96.07
2022-11-23T02:53:21.002Z,95.77
2022-11-23T02:55:48.004Z,95.62
2022-11-23T02:58:14.976Z,95.48
2022-11-23T03:00:42.341Z,95.57
2022-11-23T03:03:09.484Z,95.47
2022-11-23T03:05:36.629Z,95.19
2022-11-23T03:08:06.186Z,95.10
2022-11-23T03:10:33.554Z,95.27
2022-11-23T03:13:01.010Z,95.59
2022-11-23T03:15:32.390Z,95.47
2022-11-23T03:17:59.879Z,95.67
2022-11-23T03:20:27.308Z,96.00
2022-11-23T03:22:54.357Z,95.85
2022-11-23T03:25:23.549Z,95.93
2022-11-23T03:27:53.698Z,95.34
2022-11-23T03:30:21.323Z,95.35
2022-11-23T03:32:49.345Z,95.49
2022-11-23T03:35:17.830Z,95.44
2022-11-23T03:38:05.213Z,95.50
2022-11-23T03:40:32.211Z,95.60
2022-11-23T03:43:22.743Z,95.35
2022-11-23T03:45:49.936Z,95.65
2022-11-23T03:48:17.967Z,95.45
2022-11-23T03:50:45.608Z,95.01
2022-11-23T03:53:12.915Z,95.37
2022-11-23T03:55:40.119Z,95.05
2022-11-23T03:58:07.155Z,95.84
2022-11-23T04:00:36.071Z,95.54
2022-11-23T04:03:04.377Z,95.40
2022-11-23T04:05:50.016Z,95.34
2022-11-23T04:08:36.924Z,95.19
2022-11-23T04:11:09.087Z,95.35
2022-11-23T04:13:38.425Z,95.46
2022-11-23T04:16:07.199Z,95.11
2022-11-23T04:18:34.206Z,95.43
2022-11-23T04:21:01.269Z,94.91
2022-11-23T04:23:28.686Z,95.08
2022-11-23T04:25:55.810Z,94.92
2022-11-23T04:28:24.174Z,94.31
2022-11-23T04:30:52.402Z,94.89
2022-11-23T04:33:20.005Z,94.39
2022-11-23T04:35:47.403Z,94.75
2022-11-23T04:38:15.215Z,94.62
2022-11-23T04:40:42.801Z,94.44
2022-11-23T04:43:10.252Z,94.51
2022-11-23T04:45:40.456Z,94.66
2022-11-23T04:48:13.150Z,94.25
2022-11-23T04:50:43.708Z,94.25
2022-11-23T04:53:13.881Z,94.75
2022-11-23T04:55:47.422Z,94.08
2022-11-23T04:58:15.679Z,94.00
2022-11-23T05:00:42.832Z,94.05
2022-11-23T05:03:11.673Z,94.19
2022-11-23T05:05:41.490Z,94.08
2022-11-23T05:08:09.194Z,93.58
2022-11-23T05:11:03.755Z,93.90
2022-11-23T05:13:30.869Z,93.40
2022-11-23T05:15:57.827Z,93.66
2022-11-23T05:18:28.290Z,93.59
2022-11-23T05:20:55.350Z,93.32
2022-11-23T05:23:22.674Z,93.26
2022-11-23T05:25:52.234Z,93.37
2022-11-23T05:31:12.465Z,93.44
2022-11-23T05:33:39.507Z,93.02
2022-11-23T05:36:09.720Z,93.31
2022-11-23T05:38:42.534Z,93.29
2022-11-23T05:41:15.429Z,93.01
2022-11-23T05:43:43.903Z,93.23
2022-11-23T05:46:16.110Z,93.32
2022-11-23T05:48:43.131Z,92.83
2022-11-23T05:51:11.194Z,93.07
2022-11-23T05:53:43.679Z,93.29
2022-11-23T05:56:19.347Z,93.21
2022-11-23T05:59:10.364Z,92.71
2022-11-23T06:01:39.621Z,92.72
2022-11-23T06:04:08.642Z,93.07
2022-11-23T06:06:40.879Z,92.47
2022-11-23T06:09:07.818Z,93.35
2022-11-23T06:11:37.143Z,92.88
2022-11-23T06:14:14.275Z,93.21
2022-11-23T06:16:43.878Z,92.98
2022-11-23T06:19:21.061Z,92.78
2022-11-23T06:21:50.596Z,93.12
2022-11-23T06:24:19.490Z,93.21
2022-11-23T06:26:53.378Z,93.03
2022-11-23T06:29:20.796Z,92.92
2022-11-23T06:31:47.926Z,93.22
2022-11-23T06:34:15.119Z,93.50
2022-11-23T06:36:43.190Z,92.85
2022-11-23T06:39:10.385Z,93.21
2022-11-23T06:41:37.486Z,93.17
2022-11-23T06:44:05.457Z,92.71
2022-11-23T06:46:38.879Z,93.23
2022-11-23T06:49:06.141Z,93.14
2022-11-23T06:51:33.227Z,92.87
2022-11-23T06:54:00.188Z,92.87
2022-11-23T06:56:27.404Z,92.33
2022-11-23T06:58:54.392Z,92.51
2022-11-23T07:01:25.680Z,92.51
2022-11-23T07:03:57.806Z,93.06
2022-11-23T07:06:39.542Z,93.14
2022-11-23T07:09:09.742Z,93.24
2022-11-23T07:11:48.276Z,92.97
2022-11-23T07:14:16.325Z,93.26
2022-11-23T07:16:46.747Z,92.48
2022-11-23T07:19:17.499Z,92.87
2022-11-23T07:21:46.269Z,92.67
2022-11-23T07:24:13.292Z,93.30
2022-11-23T07:26:41.015Z,92.49
2022-11-23T07:29:08.023Z,92.59
2022-11-23T07:31:35.283Z,93.15
2022-11-23T07:34:03.420Z,93.05
2022-11-23T07:36:30.586Z,92.82
2022-11-23T07:38:57.521Z,92.75
2022-11-23T07:41:27.193Z,92.63
2022-11-23T07:44:14.527Z,93.28
2022-11-23T07:46:41.447Z,93.22
2022-11-23T07:49:08.386Z,92.98
2022-11-23T07:51:35.338Z,93.49
2022-11-23T07:54:02.373Z,93.17
2022-11-23T07:56:29.492Z,93.06
2022-11-23T07:58:56.603Z,93.43
2022-11-23T08:01:23.537Z,93.52
2022-11-23T08:03:50.563Z,93.24
2022-11-23T08:06:17.766Z,93.73
2022-11-23T08:08:44.830Z,93.57
2022-11-23T08:11:14.712Z,93.60
2022-11-23T08:13:41.846Z,93.94
2022-11-23T08:16:09.178Z,93.95
2022-11-23T08:18:36.451Z,94.19
2022-11-23T08:21:03.630Z,94.14
2022-11-23T08:23:31.091Z,94.20
2022-11-23T08:25:58.354Z,93.90
2022-11-23T08:28:25.331Z,94.18
2022-11-23T08:30:52.365Z,93.93
2022-11-23T08:33:19.316Z,94.06
2022-11-23T08:35:46.265Z,93.80
2022-11-23T08:38:13.450Z,93.71
2022-11-23T08:40:40.781Z,93.76
2022-11-23T08:43:07.784Z,93.43
2022-11-23T08:45:35.020Z,93.99
2022-11-23T08:48:03.793Z,93.94
2022-11-23T08:50:31.319Z,93.88
2022-11-23T08:52:59.796Z,93.78
2022-11-23T08:55:28.175Z,93.73
2022-11-23T08:57:59.160Z,93.64
2022-11-23T09:00:26.842Z,93.36
2022-11-23T09:02:53.896Z,93.90
2022-11-23T09:05:21.054Z,93.29
2022-11-23T09:07:48.300Z,93.42
2022-11-23T09:10:18.868Z,93.14
2022-11-23T09:12:48.007Z,93.27
2022-11-23T09:15:15.437Z,93.74
2022-11-23T09:17:42.410Z,93.66
2022-11-23T09:20:10.272Z,93.68
2022-11-23T09:22:37.428Z,93.43
2022-11-23T09:25:06.903Z,93.42
2022-11-23T09:27:33.865Z,94.01
2022-11-23T09:30:00.781Z,93.62
2022-11-23T09:32:28.166Z,93.79
2022-11-23T09:34:55.118Z,93.05
2022-11-23T09:37:22.041Z,93.00
2022-11-23T09:39:48.959Z,93.44
2022-11-23T09:42:37.873Z,93.06
2022-11-23T09:45:30.717Z,92.23
2022-11-23T09:48:52.367Z,91.96
2022-11-23T09:51:23.496Z,92.90
2022-11-23T09:54:00.551Z,94.00
2022-11-23T09:56:35.114Z,93.53
2022-11-23T09:59:14.431Z,92.95
2022-11-23T10:01:41.660Z,92.65
2022-11-23T10:04:19.557Z,92.23
2022-11-23T10:06:56.637Z,92.84
2022-11-23T10:09:44.525Z,92.33
2022-11-23T10:12:26.223Z,93.12
2022-11-23T10:15:14.160Z,93.07
2022-11-23T10:18:09.028Z,91.83
2022-11-23T10:20:56.687Z,92.84
2022-11-23T10:23:55.811Z,93.64
2022-11-23T10:26:37.929Z,93.38
2022-11-23T10:29:26.974Z,94.10
2022-11-23T10:31:57.254Z,93.73
2022-11-23T10:34:56.927Z,92.88
2022-11-23T10:37:23.867Z,93.33
2022-11-23T10:39:50.792Z,93.04
2022-11-23T10:42:38.439Z,93.97
2022-11-23T10:45:06.293Z,93.27
2022-11-23T10:47:48.671Z,91.69
2022-11-23T10:50:37.354Z,91.82
2022-11-23T10:53:25.941Z,90.72
2022-11-23T10:55:59.968Z,91.16
2022-11-23T10:58:37.170Z,90.80
2022-11-23T11:01:12.156Z,90.84
2022-11-23T11:03:39.320Z,90.91
2022-11-23T11:06:09.634Z,90.99
2022-11-23T11:08:51.140Z,90.27
2022-11-23T11:11:38.628Z,92.07
2022-11-23T11:14:24.800Z,92.24
2022-11-23T11:17:00.404Z,91.38
2022-11-23T11:19:36.034Z,90.85
2022-11-23T11:22:30.551Z,90.93
2022-11-23T11:24:57.693Z,90.79
2022-11-23T11:27:29.154Z,91.91
2022-11-23T11:30:06.503Z,90.74
2022-11-23T11:32:56.362Z,90.20
2022-11-23T11:35:32.332Z,91.26
2022-11-23T11:38:33.868Z,92.11
2022-11-23T11:41:08.490Z,92.91
2022-11-23T11:43:47.361Z,90.80
2022-11-23T11:46:30.896Z,91.30
2022-11-23T11:49:13.287Z,90.71
2022-11-23T11:52:00.399Z,89.78
2022-11-23T11:54:43.770Z,89.85
2022-11-23T11:57:39.805Z,91.22
2022-11-23T12:00:15.372Z,90.50
2022-11-23T12:03:20.113Z,90.17
2022-11-23T12:05:51.814Z,90.10
2022-11-23T12:08:26.042Z,91.02
2022-11-23T12:10:59.120Z,92.03
2022-11-23T12:13:31.973Z,90.84
2022-11-23T12:16:35.243Z,88.34
2022-11-23T12:19:34.866Z,90.19
2022-11-23T12:22:49.570Z,89.22
2022-11-23T12:25:38.134Z,89.75
2022-11-23T12:28:19.289Z,88.48
2022-11-23T12:31:05.772Z,88.41
2022-11-23T12:34:06.595Z,90.08
2022-11-23T12:37:11.952Z,88.36
2022-11-23T12:40:28.227Z,88.05
2022-11-23T12:43:05.215Z,88.64
2022-11-23T12:45:50.281Z,86.28
2022-11-23T12:48:45.667Z,86.54
2022-11-23T12:51:32.340Z,87.08
2022-11-23T12:54:26.267Z,85.88
2022-11-23T12:57:14.942Z,85.61
2022-11-23T12:59:56.590Z,87.50
2022-11-23T13:02:51.724Z,86.49
2022-11-23T13:05:21.252Z,87.41
2022-11-23T13:08:11.072Z,85.66
2022-11-23T13:10:58.028Z,84.73
2022-11-23T13:14:02.349Z,84.81
2022-11-23T13:16:57.766Z,83.62
2022-11-23T13:19:54.650Z,83.79
2022-11-23T13:22:35.392Z,83.62
2022-11-23T13:25:23.888Z,81.25
2022-11-23T13:27:50.724Z,83.16
2022-11-23T13:33:37.411Z,83.51
2022-11-23T13:36:11.572Z,81.82
2022-11-23T13:38:44.041Z,81.98
2022-11-23T13:41:35.459Z,82.13
2022-11-23T13:44:32.478Z,82.13
2022-11-23T13:47:02.163Z,82.29
2022-11-23T13:49:51.585Z,83.74
2022-11-23T13:52:21.363Z,83.42
2022-11-23T13:55:13.368Z,81.99
2022-11-23T13:57:43.082Z,82.63
2022-11-23T14:00:51.888Z,82.61
2022-11-23T14:03:44.061Z,81.17
2022-11-23T14:06:39.063Z,81.88
2022-11-23T14:09:32.865Z,82.88
2022-11-23T14:12:11.630Z,84.10
2022-11-23T14:14:56.086Z,82.91
2022-11-23T14:18:01.797Z,81.88
2022-11-23T14:20:35.058Z,83.87
2022-11-23T14:23:46.804Z,83.39
2022-11-23T14:27:23.778Z,81.98
2022-11-23T14:30:34.601Z,83.77
2022-11-23T14:33:44.484Z,81.76
2022-11-23T14:36:17.536Z,82.33
2022-11-23T14:38:55.066Z,80.55
2022-11-23T14:41:29.612Z,81.48
2022-11-23T14:44:00.327Z,81.07
2022-11-23T14:46:30.253Z,80.35
2022-11-23T14:49:14.288Z,80.20
2022-11-23T14:51:44.929Z,81.11
2022-11-23T14:54:15.126Z,80.18
2022-11-23T14:56:46.585Z,81.00
2022-11-23T14:59:38.222Z,80.73
2022-11-23T15:02:15.972Z,80.09
2022-11-23T15:05:23.865Z,79.38
2022-11-23T15:08:17.528Z,79.28
2022-11-23T15:10:59.431Z,79.87
2022-11-23T15:13:29.830Z,80.70
2022-11-23T15:15:58.315Z,79.84
2022-11-23T15:18:34.526Z,80.02
2022-11-23T15:21:13.139Z,79.84
2022-11-23T15:23:52.902Z,79.89
2022-11-23T15:26:49.597Z,80.13
2022-11-23T15:29:37.647Z,79.14
2022-11-23T15:32:31.289Z,80.01
2022-11-23T15:35:07.809Z,80.05
2022-11-23T15:37:45.771Z,80.63
2022-11-23T15:40:18.461Z,80.72
2022-11-23T15:42:48.714Z,81.12
2022-11-23T15:45:37.644Z,80.76
2022-11-23T15:48:09.553Z,81.26
2022-11-23T15:50:54.924Z,80.33
2022-11-23T15:53:27.533Z,81.07
2022-11-23T15:56:03.823Z,81.09
2022-11-23T15:58:31.520Z,81.31
2022-11-23T16:01:10.995Z,81.06
2022-11-23T16:04:00.939Z,80.67
2022-11-23T16:06:48.637Z,80.42
2022-11-23T16:09:53.097Z,80.82
2022-11-23T16:12:33.773Z,80.61
2022-11-23T16:15:38.960Z,80.43
2022-11-23T16:18:13.162Z,81.12
2022-11-23T16:21:01.744Z,80.61
2022-11-23T16:23:56.098Z,80.66
2022-11-23T16:26:34.061Z,80.67
2022-11-23T16:29:02.301Z,80.38
2022-11-23T16:31:52.877Z,80.28
2022-11-23T16:34:20.036Z,80.80
2022-11-23T16:36:47.045Z,80.78
2022-11-23T16:39:13.967Z,80.21
2022-11-23T16:41:41.217Z,81.19
2022-11-23T16:44:08.307Z,80.92
2022-11-23T16:46:39.119Z,80.56
2022-11-23T16:49:21.512Z,80.30
2022-11-23T16:51:56.494Z,80.61
2022-11-23T16:54:31.757Z,80.98
2022-11-23T16:56:58.754Z,80.56
2022-11-23T16:59:25.855Z,80.48
2022-11-23T17:01:57.313Z,80.95
2022-11-23T17:04:25.298Z,81.23
2022-11-23T17:06:52.325Z,81.52
2022-11-23T17:09:19.342Z,81.39
2022-11-23T17:11:48.284Z,82.34
2022-11-23T17:14:30.233Z,82.74
2022-11-23T17:16:57.426Z,82.71
2022-11-23T17:19:24.457Z,83.03
2022-11-23T17:21:51.526Z,83.68
2022-11-23T17:24:18.517Z,83.73
2022-11-23T17:26:53.049Z,83.66
2022-11-23T17:29:21.300Z,83.81
2022-11-23T17:31:51.549Z,83.62
2022-11-23T17:34:18.592Z,83.80
2022-11-23T17:36:50.770Z,83.89
2022-11-23T17:39:23.011Z,84.15
2022-11-23T17:41:52.219Z,84.50
2022-11-23T17:44:19.134Z,85.15
2022-11-23T17:46:47.421Z,85.37
2022-11-23T17:49:16.965Z,84.53
2022-11-23T17:51:43.961Z,85.09
2022-11-23T17:54:11.145Z,85.39
2022-11-23T17:56:38.823Z,86.39
2022-11-23T17:59:08.630Z,86.05
2022-11-23T18:01:35.626Z,85.72
2022-11-23T18:04:04.652Z,85.91
2022-11-23T18:06:31.762Z,86.82
2022-11-23T18:08:58.733Z,87.00
2022-11-23T18:11:25.769Z,86.40
2022-11-23T18:13:53.373Z,86.93
2022-11-23T18:16:22.517Z,87.14
2022-11-23T18:18:50.983Z,87.09
2022-11-23T18:21:19.513Z,86.82
2022-11-23T18:23:46.488Z,86.51
2022-11-23T18:26:23.593Z,85.96
2022-11-23T18:28:50.653Z,86.42
2022-11-23T18:31:18.889Z,87.29
2022-11-23T18:33:46.500Z,86.98
2022-11-23T18:36:13.674Z,87.35
2022-11-23T18:38:41.240Z,86.73
2022-11-23T18:41:08.498Z,87.10
2022-11-23T18:43:35.458Z,86.88
2022-11-23T18:46:06.921Z,87.22
2022-11-23T18:48:34.281Z,87.92
2022-11-23T18:51:01.579Z,87.19
2022-11-23T18:53:29.564Z,87.12
2022-11-23T18:56:01.756Z,88.33
2022-11-23T18:58:34.025Z,87.32
2022-11-23T19:01:13.882Z,87.90
2022-11-23T19:03:42.154Z,88.41
2022-11-23T19:06:14.437Z,89.00
2022-11-23T19:08:51.029Z,88.09
2022-11-23T19:11:21.440Z,88.15
2022-11-23T19:13:51.734Z,88.25
2022-11-23T19:16:22.731Z,89.07
2022-11-23T19:18:57.808Z,89.08
2022-11-23T19:21:28.801Z,88.45
2022-11-23T19:23:57.236Z,89.76
2022-11-23T19:26:25.732Z,89.82
2022-11-23T19:28:54.215Z,90.08
2022-11-23T19:31:22.911Z,90.09
2022-11-23T19:33:52.387Z,89.34
2022-11-23T19:36:23.802Z,90.48
2022-11-23T19:38:52.089Z,91.11
2022-11-23T19:41:22.947Z,90.19
2022-11-23T19:43:54.302Z,90.47
2022-11-23T19:46:21.906Z,90.04
2022-11-23T19:48:49.506Z,89.99
2022-11-23T19:51:19.873Z,89.00
2022-11-23T19:53:49.186Z,90.86
2022-11-23T19:56:26.293Z,90.93
2022-11-23T19:58:56.533Z,91.20
2022-11-23T20:01:27.322Z,90.87
2022-11-23T20:03:57.098Z,90.52
2022-11-23T20:06:30.964Z,90.61
2022-11-23T20:09:01.175Z,91.11
2022-11-23T20:11:31.421Z,90.72
2022-11-23T20:13:59.303Z,91.31
2022-11-23T20:16:30.337Z,91.27
2022-11-23T20:19:02.751Z,89.97
2022-11-23T20:21:31.942Z,90.89
2022-11-23T20:24:13.966Z,90.93
2022-11-23T20:26:41.838Z,91.06
2022-11-23T20:29:10.877Z,90.26
2022-11-23T20:31:38.174Z,90.67
2022-11-23T20:34:07.735Z,90.70
2022-11-23T20:36:38.026Z,89.96
2022-11-23T20:39:08.253Z,89.95
2022-11-23T20:41:37.082Z,90.29
2022-11-23T20:44:12.238Z,90.35
2022-11-23T20:49:27.203Z,89.23
2022-11-23T20:51:54.146Z,90.17
2022-11-23T20:54:21.227Z,90.08
2022-11-23T20:56:48.310Z,89.58
2022-11-23T20:59:15.419Z,89.13
2022-11-23T21:01:42.590Z,89.15
2022-11-23T21:04:09.776Z,89.02
2022-11-23T21:06:39.321Z,89.32
2022-11-23T21:09:09.109Z,89.63
2022-11-23T21:11:55.171Z,89.46
2022-11-23T21:14:27.171Z,89.91
2022-11-23T21:16:58.135Z,89.25
2022-11-23T21:19:37.604Z,89.49
2022-11-23T21:22:11.921Z,88.87
2022-11-23T21:24:39.681Z,89.39
2022-11-23T21:27:10.194Z,89.13
2022-11-23T21:29:37.183Z,89.28
2022-11-23T21:32:05.381Z,89.44
2022-11-23T21:34:32.878Z,89.55
2022-11-23T21:37:00.179Z,89.54
2022-11-23T21:39:29.869Z,89.87
2022-11-23T21:41:56.915Z,89.77
2022-11-23T21:44:23.872Z,89.58
2022-11-23T21:46:51.097Z,90.07
2022-11-23T21:49:18.239Z,89.61
2022-11-23T21:51:45.828Z,90.22
2022-11-23T21:54:15.458Z,90.33
2022-11-23T21:56:44.574Z,90.34
2022-11-23T21:59:12.267Z,89.98
2022-11-23T22:01:40.327Z,89.58
2022-11-23T22:04:15.873Z,89.25
2022-11-23T22:06:44.431Z,89.26
2022-11-23T22:09:12.928Z,89.23
2022-11-23T22:11:42.855Z,89.80
2022-11-23T22:14:15.466Z,89.96
2022-11-23T22:16:49.579Z,90.29
2022-11-23T22:19:17.778Z,89.89
2022-11-23T22:21:46.609Z,90.22
2022-11-23T22:24:17.110Z,90.36
2022-11-23T22:26:45.065Z,89.98
2022-11-23T22:29:12.395Z,90.47
2022-11-23T22:31:39.984Z,90.67
2022-11-23T22:34:10.652Z,91.08
2022-11-23T22:36:37.620Z,91.16
2022-11-23T22:39:06.712Z,90.46
2022-11-23T22:41:36.799Z,90.28
2022-11-23T22:44:07.374Z,90.49
2022-11-23T22:46:34.899Z,91.00
2022-11-23T22:49:02.300Z,91.93
2022-11-23T22:51:29.795Z,91.81
2022-11-23T22:53:59.540Z,91.25
2022-11-23T22:56:27.829Z,92.45
2022-11-23T22:58:54.932Z,92.08
2022-11-23T23:01:26.440Z,92.45
2022-11-23T23:03:59.667Z,92.63
2022-11-23T23:06:29.849Z,92.97
2022-11-23T23:09:01.786Z,91.40
2022-11-23T23:11:32.144Z,93.05
2022-11-23T23:13:59.386Z,92.54
2022-11-23T23:16:27.094Z,91.74
2022-11-23T23:18:57.956Z,90.79
2022-11-23T23:21:26.912Z,90.75
2022-11-23T23:23:57.228Z,90.46
2022-11-23T23:26:27.050Z,90.58
2022-11-23T23:28:59.569Z,90.71
2022-11-23T23:31:27.397Z,91.79
2022-11-23T23:33:54.344Z,91.29
2022-11-23T23:36:22.681Z,91.73
2022-11-23T23:38:50.888Z,91.13
2022-11-23T23:41:17.903Z,90.70
2022-11-23T23:43:44.852Z,91.37
2022-11-23T23:46:13.492Z,90.98
2022-11-23T23:48:41.412Z,91.95
2022-11-23T23:51:21.891Z,91.07
2022-11-23T23:53:50.804Z,91.51
2022-11-23T23:56:24.470Z,91.80
2022-11-23T23:58:52.480Z,91.72
